createdAt,value
2023-02-17T06:03:29.782Z,35.28
2023-02-17T06:05:56.426Z,34.38
2023-02-17T06:08:23.709Z,33.90
2023-02-17T06:10:52.936Z,32.22
2023-02-17T06:13:20.633Z,33.85
2023-02-17T06:15:47.483Z,30.77
2023-02-17T06:18:14.828Z,31.48
2023-02-17T06:20:41.492Z,31.42
2023-02-17T06:23:08.829Z,28.35
2023-02-17T06:25:35.762Z,30.52
2023-02-17T06:28:03.042Z,28.85
2023-02-17T06:30:30.453Z,30.85
2023-02-17T06:32:58.648Z,28.10
2023-02-17T06:35:25.802Z,28.25
2023-02-17T06:37:53.182Z,24.65
2023-02-17T06:40:20.084Z,27.15
2023-02-17T06:42:47.289Z,26.63
2023-02-17T06:45:13.876Z,26.95
2023-02-17T06:47:41.131Z,27.20
2023-02-17T06:50:08.733Z,25.08
2023-02-17T06:52:36.013Z,24.02
2023-02-17T06:55:03.446Z,23.00
2023-02-17T06:57:30.229Z,23.63
2023-02-17T06:59:57.561Z,24.75
2023-02-17T07:02:24.720Z,25.25
2023-02-17T07:04:53.599Z,25.85
2023-02-17T07:07:20.220Z,24.63
2023-02-17T07:09:47.454Z,23.75
2023-02-17T07:12:14.356Z,23.10
2023-02-17T07:14:41.689Z,22.58
2023-02-17T07:17:08.463Z,26.52
2023-02-17T07:19:35.769Z,24.73
2023-02-17T07:22:02.988Z,23.23
2023-02-17T07:24:29.970Z,24.67
2023-02-17T07:26:56.606Z,26.30
2023-02-17T07:29:24.199Z,23.65
2023-02-17T07:31:50.921Z,23.70
2023-02-17T07:34:18.159Z,26.63
2023-02-17T07:36:44.899Z,26.30
2023-02-17T07:39:12.213Z,26.35
2023-02-17T07:41:38.759Z,27.45
2023-02-17T07:44:10.339Z,25.08
2023-02-17T07:46:39.635Z,22.00
2023-02-17T07:49:07.093Z,21.50
2023-02-17T07:51:33.763Z,28.77
2023-02-17T07:54:02.239Z,25.70
2023-02-17T07:56:30.005Z,27.10
2023-02-17T07:58:57.253Z,36.53
2023-02-17T08:01:25.320Z,31.85
2023-02-17T08:03:52.793Z,27.15
2023-02-17T08:06:22.067Z,29.40
2023-02-17T08:09:08.665Z,29.85
2023-02-17T08:11:54.817Z,28.67
2023-02-17T08:14:23.769Z,31.02
2023-02-17T08:16:50.662Z,28.55
2023-02-17T08:19:17.768Z,27.73
2023-02-17T08:21:44.849Z,24.77
2023-02-17T08:24:12.613Z,24.00
2023-02-17T08:26:39.786Z,25.45
2023-02-17T08:29:07.000Z,24.40
2023-02-17T08:31:36.155Z,21.92
2023-02-17T08:34:07.413Z,22.90
2023-02-17T08:36:34.360Z,22.75
2023-02-17T08:39:03.159Z,25.10
2023-02-17T08:41:34.740Z,26.48
2023-02-17T08:44:07.103Z,20.15
2023-02-17T08:46:35.903Z,23.13
2023-02-17T08:49:04.128Z,21.33
2023-02-17T08:51:30.887Z,21.35
2023-02-17T08:54:01.023Z,21.55
2023-02-17T08:56:28.924Z,22.15
2023-02-17T08:58:56.473Z,22.10
2023-02-17T09:01:23.470Z,20.30
2023-02-17T09:03:52.455Z,20.75
2023-02-17T09:06:21.347Z,23.13
2023-02-17T09:08:49.360Z,22.75
2023-02-17T09:11:21.080Z,27.13
2023-02-17T09:13:50.287Z,25.23
2023-02-17T09:16:23.331Z,27.02
2023-02-17T09:18:54.205Z,32.70
2023-02-17T09:21:25.313Z,26.08
2023-02-17T09:26:43.920Z,30.35
2023-02-17T09:29:11.698Z,33.55
2023-02-17T09:31:38.622Z,29.30
2023-02-17T09:34:06.314Z,30.45
2023-02-17T09:36:38.725Z,28.02
2023-02-17T09:39:06.572Z,33.33
2023-02-17T09:41:37.836Z,27.45
2023-02-17T09:44:07.863Z,31.20
2023-02-17T09:49:36.772Z,32.47
2023-02-17T09:52:40.623Z,34.42
2023-02-17T09:55:17.047Z,35.05
2023-02-17T09:57:54.233Z,35.83
2023-02-17T10:00:44.338Z,33.65
2023-02-17T10:03:23.390Z,36.30
2023-02-17T10:05:57.140Z,35.22
2023-02-17T10:08:31.853Z,35.53
2023-02-17T10:11:09.061Z,35.72
2023-02-17T10:13:39.413Z,34.88
2023-02-17T10:16:11.994Z,35.42
2023-02-17T10:18:48.610Z,33.67
2023-02-17T10:21:22.433Z,34.95
2023-02-17T10:23:49.389Z,34.90
2023-02-17T10:26:39.652Z,34.30
2023-02-17T10:29:13.793Z,34.17
2023-02-17T10:31:46.356Z,34.90
2023-02-17T10:34:45.073Z,34.03
2023-02-17T10:37:24.920Z,33.17
2023-02-17T10:39:57.565Z,34.83
2023-02-17T10:42:36.399Z,32.33
2023-02-17T10:45:08.419Z,34.63
2023-02-17T10:47:40.050Z,35.03
2023-02-17T10:50:19.637Z,33.47
2023-02-17T10:52:46.796Z,32.47
2023-02-17T10:55:39.207Z,29.02
2023-02-17T10:58:31.474Z,27.88
2023-02-17T11:01:02.164Z,31.55
2023-02-17T11:03:34.190Z,30.83
2023-02-17T11:06:05.115Z,31.17
2023-02-17T11:08:44.352Z,30.73
2023-02-17T11:11:27.452Z,33.08
2023-02-17T11:14:06.187Z,26.80
2023-02-17T11:16:33.603Z,27.23
2023-02-17T11:19:00.726Z,28.55
2023-02-17T11:21:30.138Z,27.15
2023-02-17T11:24:08.843Z,25.90
2023-02-17T11:26:36.726Z,26.65
2023-02-17T11:29:22.544Z,25.38
2023-02-17T11:32:02.123Z,29.33
2023-02-17T11:34:33.179Z,24.67
2023-02-17T11:37:27.147Z,23.08
2023-02-17T11:39:56.983Z,23.52
2023-02-17T11:42:35.605Z,24.52
2023-02-17T11:45:17.531Z,22.25
2023-02-17T11:48:16.658Z,22.23
2023-02-17T11:51:18.828Z,20.50
2023-02-17T11:54:21.284Z,20.85
2023-02-17T11:57:05.131Z,24.30
2023-02-17T11:59:41.895Z,22.20
2023-02-17T12:02:44.550Z,26.60
2023-02-17T12:05:51.022Z,24.23
2023-02-17T12:08:31.101Z,24.05
2023-02-17T12:11:32.832Z,22.58
2023-02-17T12:14:28.749Z,22.42
2023-02-17T12:17:27.091Z,22.50
2023-02-17T12:20:37.253Z,23.92
2023-02-17T12:23:09.079Z,21.23
2023-02-17T12:26:33.290Z,21.88
2023-02-17T12:29:31.067Z,22.08
2023-02-17T12:32:36.609Z,26.50
2023-02-17T12:35:51.069Z,21.67
2023-02-17T12:38:32.550Z,25.02
2023-02-17T12:41:28.831Z,22.60
2023-02-17T12:44:02.287Z,20.85
2023-02-17T12:46:50.124Z,22.60
2023-02-17T12:49:37.506Z,22.77
2023-02-17T12:52:16.845Z,20.13
2023-02-17T12:54:51.671Z,23.17
2023-02-17T12:57:45.984Z,17.95
2023-02-17T13:00:23.775Z,27.38
2023-02-17T13:02:51.056Z,20.42
2023-02-17T13:05:29.095Z,19.70
2023-02-17T13:08:16.582Z,18.70
2023-02-17T13:10:43.280Z,16.08
2023-02-17T13:13:26.525Z,17.45
2023-02-17T13:16:11.946Z,18.25
2023-02-17T13:18:42.033Z,24.25
2023-02-17T13:21:21.688Z,11.82
2023-02-17T13:24:02.803Z,11.73
2023-02-17T13:26:35.572Z,13.63
2023-02-17T13:29:35.908Z,12.15
2023-02-17T13:32:11.308Z,11.52
2023-02-17T13:34:44.567Z,14.20
2023-02-17T13:37:26.447Z,12.50
2023-02-17T13:39:54.058Z,11.70
2023-02-17T13:42:36.557Z,11.25
2023-02-17T13:45:28.114Z,13.77
2023-02-17T13:48:00.008Z,11.13
2023-02-17T13:50:28.043Z,11.50
2023-02-17T13:52:55.683Z,11.65
2023-02-17T13:55:24.245Z,10.52
2023-02-17T13:57:57.791Z,10.45
2023-02-17T14:00:30.817Z,11.90
2023-02-17T14:03:02.662Z,13.32
2023-02-17T14:05:32.209Z,13.35
2023-02-17T14:08:38.384Z,14.07
2023-02-17T14:11:11.874Z,11.98
2023-02-17T14:13:42.615Z,12.85
2023-02-17T14:16:27.955Z,13.23
2023-02-17T14:19:13.004Z,12.55
2023-02-17T14:21:42.198Z,17.60
2023-02-17T14:24:31.651Z,13.05
2023-02-17T14:27:05.619Z,13.00
2023-02-17T14:29:59.231Z,12.88
2023-02-17T14:32:33.412Z,14.60
2023-02-17T14:35:12.842Z,12.10
2023-02-17T14:37:41.354Z,13.07
2023-02-17T14:40:18.514Z,13.23
2023-02-17T14:42:46.369Z,13.18
2023-02-17T14:45:15.458Z,15.48
2023-02-17T14:47:42.925Z,14.23
2023-02-17T14:50:11.221Z,11.75
2023-02-17T14:52:43.896Z,11.98
2023-02-17T14:55:20.273Z,14.48
2023-02-17T14:57:46.934Z,13.23
2023-02-17T15:00:15.485Z,13.82
2023-02-17T15:02:42.108Z,15.48
2023-02-17T15:05:09.565Z,12.68
2023-02-17T15:07:36.420Z,12.27
2023-02-17T15:10:04.984Z,14.20
2023-02-17T15:12:31.662Z,12.10
2023-02-17T15:14:58.865Z,16.13
2023-02-17T15:17:25.423Z,12.98
2023-02-17T15:19:52.558Z,11.55
2023-02-17T15:22:19.198Z,12.27
2023-02-17T15:24:46.214Z,11.85
2023-02-17T15:27:14.568Z,9.63
2023-02-17T15:29:42.123Z,10.18
2023-02-17T15:32:23.823Z,11.77
2023-02-17T15:34:51.087Z,11.65
2023-02-17T15:37:17.657Z,13.77
2023-02-17T15:39:44.963Z,12.45
2023-02-17T15:42:13.794Z,12.77
2023-02-17T15:44:45.776Z,12.35
2023-02-17T15:47:15.985Z,11.52
2023-02-17T15:49:43.412Z,14.00
2023-02-17T15:52:12.656Z,11.40
2023-02-17T15:54:43.883Z,12.02
2023-02-17T15:57:24.736Z,8.98
2023-02-17T15:59:55.319Z,10.68
2023-02-17T16:02:23.846Z,10.57
2023-02-17T16:04:51.069Z,10.10
2023-02-17T16:07:17.648Z,10.98
2023-02-17T16:09:44.901Z,10.32
2023-02-17T16:12:27.145Z,9.45
2023-02-17T16:14:55.588Z,12.75
2023-02-17T16:17:22.526Z,9.65
2023-02-17T16:19:52.351Z,10.43
2023-02-17T16:22:20.979Z,9.50
2023-02-17T16:27:39.205Z,11.00
2023-02-17T16:30:24.366Z,12.00
2023-02-17T16:32:52.413Z,14.10
2023-02-17T16:35:25.560Z,11.80
2023-02-17T16:37:53.942Z,13.30
2023-02-17T16:40:23.745Z,10.98
2023-02-17T16:42:50.470Z,11.07
2023-02-17T16:45:26.115Z,8.95
2023-02-17T16:47:55.593Z,8.63
2023-02-17T16:50:31.997Z,12.63
2023-02-17T16:53:02.077Z,13.60
2023-02-17T16:55:31.711Z,13.27
2023-02-17T17:00:29.645Z,10.93
2023-02-17T17:02:58.253Z,11.90
2023-02-17T17:05:28.018Z,10.65
2023-02-17T17:07:56.393Z,13.05
2023-02-17T17:10:26.804Z,11.23
2023-02-17T17:12:53.993Z,9.00
2023-02-17T17:15:22.246Z,12.05
2023-02-17T17:17:59.743Z,11.00
2023-02-17T17:20:34.042Z,12.60
2023-02-17T17:23:03.357Z,20.70
2023-02-17T17:25:30.885Z,14.00
2023-02-17T17:27:57.912Z,14.65
2023-02-17T17:30:28.616Z,15.27
2023-02-17T17:32:55.310Z,12.15
2023-02-17T17:35:22.763Z,10.52
2023-02-17T17:37:49.794Z,13.70
2023-02-17T17:40:24.054Z,10.73
2023-02-17T17:42:51.490Z,11.07
2023-02-17T17:45:18.477Z,12.07
2023-02-17T17:47:45.464Z,10.10
2023-02-17T17:50:17.915Z,10.32
2023-02-17T17:52:46.126Z,12.70
2023-02-17T17:55:13.565Z,10.25
2023-02-17T17:57:40.717Z,12.30
2023-02-17T18:00:10.416Z,12.95
2023-02-17T18:02:42.184Z,10.63
2023-02-17T18:05:09.292Z,9.50
2023-02-17T18:07:38.489Z,14.25
2023-02-17T18:10:07.866Z,13.07
2023-02-17T18:12:35.582Z,13.35
2023-02-17T18:15:03.019Z,14.18
2023-02-17T18:17:33.455Z,11.40
2023-02-17T18:20:00.888Z,13.32
2023-02-17T18:22:27.549Z,12.68
2023-02-17T18:24:54.794Z,13.05
2023-02-17T18:27:22.767Z,14.35
2023-02-17T18:29:50.111Z,9.90
2023-02-17T18:32:16.700Z,14.00
2023-02-17T18:34:43.874Z,15.70
2023-02-17T18:37:10.426Z,13.13
2023-02-17T18:39:37.658Z,15.90
2023-02-17T18:42:05.039Z,12.35
2023-02-17T18:44:33.161Z,20.23
2023-02-17T18:46:59.698Z,35.95
2023-02-17T18:49:26.948Z,19.30
2023-02-17T18:51:54.432Z,16.83
2023-02-17T18:54:21.317Z,15.88
2023-02-17T18:56:47.950Z,17.85
2023-02-17T18:59:14.822Z,16.40
2023-02-17T19:01:43.148Z,17.50
2023-02-17T19:04:12.053Z,14.15
2023-02-17T19:06:39.113Z,18.55
2023-02-17T19:09:06.106Z,18.13
2023-02-17T19:11:33.569Z,17.35
2023-02-17T19:14:01.651Z,10.68
2023-02-17T19:16:31.317Z,12.70
2023-02-17T19:18:59.543Z,16.58
2023-02-17T19:21:26.764Z,15.18
2023-02-17T19:23:54.137Z,22.58
2023-02-17T19:26:21.304Z,15.50
2023-02-17T19:28:48.613Z,14.63
2023-02-17T19:31:18.252Z,8.48
2023-02-17T19:33:45.802Z,13.73
2023-02-17T19:36:19.856Z,21.02
2023-02-17T19:38:48.378Z,14.75
2023-02-17T19:41:16.588Z,10.68
2023-02-17T19:43:44.004Z,13.20
2023-02-17T19:46:12.783Z,14.18
2023-02-17T19:48:39.572Z,11.40
2023-02-17T19:51:08.271Z,16.05
2023-02-17T19:53:35.938Z,11.07
2023-02-17T19:56:14.903Z,15.80
2023-02-17T19:58:43.971Z,12.55
2023-02-17T20:01:12.789Z,13.68
2023-02-17T20:03:40.165Z,18.23
2023-02-17T20:06:09.969Z,12.25
2023-02-17T20:08:37.920Z,10.75
2023-02-17T20:11:07.960Z,13.57
2023-02-17T20:13:45.282Z,13.98
2023-02-17T20:16:15.010Z,15.18
2023-02-17T20:18:44.468Z,11.98
2023-02-17T20:23:39.690Z,14.07
2023-02-17T20:26:10.386Z,13.35
2023-02-17T20:28:37.766Z,15.02
2023-02-17T20:31:05.990Z,10.30
2023-02-17T20:33:32.737Z,8.27
2023-02-17T20:35:59.273Z,13.25
2023-02-17T20:38:26.427Z,19.60
2023-02-17T20:40:53.032Z,14.48
2023-02-17T20:43:20.938Z,14.63
2023-02-17T20:45:49.321Z,13.85
2023-02-17T20:48:17.206Z,16.98
2023-02-17T20:50:44.526Z,10.43
2023-02-17T20:53:12.067Z,10.43
2023-02-17T20:55:39.299Z,13.80
2023-02-17T20:58:06.502Z,12.55
2023-02-17T21:00:34.020Z,9.95
2023-02-17T21:03:01.334Z,12.73
2023-02-17T21:05:27.954Z,16.10
2023-02-17T21:07:56.799Z,12.15
2023-02-17T21:10:27.046Z,13.88
2023-02-17T21:12:54.636Z,18.20
2023-02-17T21:15:21.829Z,15.63
2023-02-17T21:17:49.592Z,14.68
2023-02-17T21:20:19.476Z,19.17
2023-02-17T21:22:47.022Z,21.05
2023-02-17T21:25:13.663Z,14.20
2023-02-17T21:27:40.844Z,11.13
